• Join FlightAware (Why Join?)
  • Login
  • US Flag 
07:06AM EDT


 

Airport Tracker/Info


-or-


 

Live Flight TrackerFlight Track Log ✈ KAP927 ✈ 20-Jun-2013 ✈ KALB - KOGS

Flight Track Log - Related Links

Times and Time Zones

All times are in EDT time to prevent confusion due to time zone crossing. See the KAP927 flight status page for this flight to view local times or setup timezone preferences in your user account.

Time Position Orientation Groundspeed Altitude Reporting Facility
EDT Latitude Longitude Course Direction KTS MPH feet Rate Location/Type
02:34PM 42.8047 -73.8211 340° North 124 143 1,400  Level Boston Center
02:35PM 42.8400 -73.8389 340° North 126 145 2,100 600 Climbing Boston Center
02:36PM 42.8731 -73.8453 352° North 119 137 2,700 540 Climbing Boston Center
02:37PM 42.9061 -73.8717 330° Northwest 131 151 3,200 480 Climbing Boston Center
02:38PM 42.9369 -73.9006 326° Northwest 134 154 3,700 480 Climbing Boston Center
02:39PM 42.9658 -73.9269 326° Northwest 129 148 4,200 420 Climbing Boston Center
02:40PM 43.0011 -73.9533 331° Northwest 128 147 4,700 420 Climbing Boston Center
02:41PM 43.0236 -73.9764 323° Northwest 127 146 5,100 420 Climbing Boston Center
02:42PM 43.0669 -74.0117 329° Northwest 140 161 5,800 420 Climbing Boston Center
02:43PM 43.0936 -74.0353 327° Northwest 135 155 6,200 300 Climbing Boston Center
02:44PM 43.1286 -74.0644 329° Northwest 135 155 6,500 120 Climbing Boston Center
02:45PM 43.1658 -74.0856 338° Northwest 142 163 6,500  Level Boston Center
02:46PM 43.2072 -74.1150 333° Northwest 149 171 6,500  Level Boston Center
02:47PM 43.2422 -74.1358 337° Northwest 156 180 6,500  Level Boston Center
02:48PM 43.2836 -74.1628 335° Northwest 156 180 6,500  Level Boston Center
02:49PM 43.3186 -74.1867 334° Northwest 156 180 6,500  Level Boston Center
02:50PM 43.3619 -74.2136 336° Northwest 156 180 6,500  Level Boston Center
02:51PM 43.3992 -74.2375 335° Northwest 156 180 6,500  Level Boston Center
02:52PM 43.4444 -74.2675 334° Northwest 156 180 6,500 -240 Level Boston Center
02:53PM 43.4878 -74.2944 336° Northwest 156 180 6,000 -360 Descending Boston Center
02:54PM 43.5269 -74.3214 333° Northwest 161 185 5,800 -240 Descending Boston Center
02:55PM 43.5681 -74.3514 332° Northwest 161 185 5,600 -180 Descending Boston Center
02:56PM 43.6094 -74.3756 337° Northwest 156 180 5,500 -180 Descending Boston Center
02:57PM 43.6444 -74.3969 336° Northwest 156 180 5,300 -240 Descending Boston Center
02:58PM 43.6958 -74.4358 331° Northwest 156 180 5,100 -240 Descending Boston Center
02:59PM 43.7372 -74.4603 337° Northwest 156 180 4,900 -240 Descending Boston Center
03:00PM 43.7806 -74.4875 336° Northwest 156 180 4,700 -240 Descending Boston Center
03:01PM 43.8217 -74.5147 334° Northwest 156 180 4,500 -120 Descending Boston Center
03:02PM 43.8608 -74.5422 333° Northwest 156 180 4,500  Level Boston Center
03:03PM 43.8936 -74.5664 332° Northwest 156 180 4,500  Level Boston Center
03:04PM 43.9389 -74.5939 336° Northwest 156 180 4,500  Level Boston Center
03:05PM 43.9822 -74.6214 335° Northwest 156 180 4,600  Climbing Boston Center
03:06PM 44.0214 -74.6489 333° Northwest 156 180 4,500 -60 Descending Boston Center
03:07PM 44.0625 -74.6764 334° Northwest 156 180 4,500  Level Boston Center
03:08PM 44.1017 -74.7008 336° Northwest 156 180 4,500  Level Boston Center
03:09PM 44.1406 -74.7256 335° Northwest 156 180 4,500  Level Boston Center
03:10PM 44.1797 -74.7531 333° Northwest 156 180 4,500  Level Boston Center
03:11PM 44.2167 -74.7806 332° Northwest 151 174 4,500  Level Boston Center
03:12PM 44.2558 -74.8053 336° Northwest 151 174 4,500  Level Boston Center
03:13PM 44.2928 -74.8300 334° Northwest 151 174 4,500  Level Boston Center
03:14PM 44.3319 -74.8547 336° Northwest 151 174 4,500  Level Boston Center
03:15PM 44.3689 -74.8825 332° Northwest 151 174 4,500  Level Boston Center
03:16PM 44.4078 -74.9072 336° Northwest 151 174 4,500  Level Boston Center
03:17PM 44.4467 -74.9381 330° Northwest 156 180 4,500  Level Boston Center
03:18PM 44.4858 -74.9631 336° Northwest 156 180 4,500  Level Boston Center
03:19PM 44.5269 -74.9908 334° Northwest 156 180 4,500  Level Boston Center
03:20PM 44.5658 -75.0158 335° Northwest 156 180 4,500  Level Boston Center
03:21PM 44.6069 -75.0497 330° Northwest 156 180 4,500 -180 Level Boston Center
03:22PM 44.6222 -75.1000 293° West 142 163 4,200 -480 Descending Boston Center
03:23PM 44.6356 -75.1619 287° West 152 175 3,600 -540 Descending Boston Center
03:24PM 44.6508 -75.2153 292° West 162 186 3,200 -420 Descending Boston Center
03:26PM 44.6506 -75.2851 270° West  Level FlightAware Approximate
03:33PM 44.6667 -75.4500 295° West  Level FlightAware Approximate
03:34PM 44.6819 -75.4655 295° West  Level Estimated
03:35PM 44.6819 -75.4655 295° West  Level Estimated
03:36PM 44.6819 -75.4655 295° West  Level Estimated
03:37PM 44.6819 -75.4655 295° West  Level Estimated
03:38PM 44.6819 -75.4655 295° West  Level Estimated
03:39PM 44.6819 -75.4655 295° West  Level Estimated
03:40PM 44.6819 -75.4655 295° West  Level Estimated
03:41PM 44.6819 -75.4655 295° West  Level Estimated
03:42PM 44.6819 -75.4655 295° West  Level Estimated
03:43PM 44.6819 -75.4655 295° West  Level Estimated
03:44PM 44.6819 -75.4655 295° West  Level Estimated
03:45PM 44.6819 -75.4655 295° West  Level Estimated